Terminal Aerodrome Forecast
Issued by NWS

Home | Current Version | Previous Version | Text Only | Print | Product List | Glossary On
Versions: 1 2 3 4 5 6 7 8 9 10 11 12 13
000
FTUS43 KDTX 181311 AAA
TAFMBS
TAF AMD
KMBS 181311Z 1813/1912 01011G18KT P6SM SKC
     FM181700 05016G24KT P6SM SKC
     FM190100 06010KT P6SM SKC=

USA.gov is the U.S. government's official web portal to all federal, state and local government web resources and services.